This is the latest recevied weather packets stored in our database for station/object SQ6XL-13. If no packets are shown the sender has not sent any weather packets the latest 10 day(s).
| Time | Temp. | Humidity | Pressure | Rain* | Wind** | Luminosity | Snow |
|---|---|---|---|---|---|---|---|
| 1787394654 | 16.11° C | 87% | 1014.5 hPa | 0 mm | - | - | - |
| 1787394164 | 15.56° C | 87% | 1014.4 hPa | 0 mm | - | - | - |
| 1787393569 | 15.56° C | 88% | 1014.2 hPa | 0 mm | - | - | - |
| 1787393044 | 15.56° C | 89% | 1014.4 hPa | 0 mm | - | - | - |
| 1787392464 | 15.56° C | 89% | 1014.4 hPa | 0 mm | - | - | - |
| 1787391904 | 15.56° C | 89% | 1014.2 hPa | 0 mm | - | - | - |
| 1787391394 | 15.56° C | 90% | 1014.1 hPa | 0 mm | - | - | - |
| 1787390799 | 15° C | 90% | 1014 hPa | 0 mm | - | - | - |
| 1787390204 | 15° C | 90% | 1014 hPa | 0 mm | - | - | - |
| 1787389674 | 15° C | 90% | 1013.8 hPa | 0.25 mm | - | - | - |
| 1787389094 | 15° C | 90% | 1013.7 hPa | 0.51 mm | - | - | - |
| 1787388511 | 15° C | 90% | 1013.6 hPa | 0 mm | - | - | - |
| 1787388024 | 15.56° C | 89% | 1013.5 hPa | 0 mm | - | - | - |
| 1787387459 | 16.11° C | 87% | 1013.3 hPa | 0 mm | - | - | - |
| 1787386939 | 16.11° C | 88% | 1013.2 hPa | 0 mm | - | - | - |
| 1787386399 | 16.11° C | 88% | 1013 hPa | 0 mm | - | - | - |
| 1787385799 | 16.11° C | 88% | 1012.8 hPa | 0 mm | - | - | - |
| 1787385254 | 16.11° C | 88% | 1012.6 hPa | 0 mm | - | - | - |
| 1787384749 | 16.11° C | 90% | 1012.7 hPa | 0 mm | - | - | - |
| 1787384214 | 15.56° C | 90% | 1012.4 hPa | 0 mm | - | - | - |
| 1787383649 | 16.11° C | 90% | 1012.4 hPa | 0 mm | - | - | - |
| 1787383064 | 16.11° C | 93% | 1012.3 hPa | 0 mm | - | - | - |
| 1787382499 | 15.56° C | 96% | 1012.4 hPa | 0 mm | - | - | - |
| 1787381911 | 14.44° C | 98% | 1012.5 hPa | 0 mm | - | - | - |
| 1787381384 | 14.44° C | 99% | 1012.4 hPa | 0 mm | - | - | - |
* Rain latest hour (hover to see other rain measurements)
** Current wind speed in m/s (hover to see current wind gust speed)